createdAt,value
2022-11-14T00:00:35.586Z,6.90
2022-11-14T00:03:08.095Z,6.90
2022-11-14T00:05:40.141Z,6.90
2022-11-14T00:08:08.876Z,7.00
2022-11-14T00:10:41.700Z,7.00
2022-11-14T00:13:10.694Z,7.10
2022-11-14T00:15:38.783Z,7.10
2022-11-14T00:18:07.167Z,7.20
2022-11-14T00:20:35.514Z,7.30
2022-11-14T00:23:03.890Z,7.30
2022-11-14T00:25:34.148Z,7.40
2022-11-14T00:28:03.635Z,7.30
2022-11-14T00:30:31.636Z,7.40
2022-11-14T00:32:59.625Z,7.40
2022-11-14T00:35:27.631Z,7.50
2022-11-14T00:37:55.721Z,7.50
2022-11-14T00:40:23.718Z,7.50
2022-11-14T00:42:51.832Z,7.60
2022-11-14T00:45:22.616Z,7.60
2022-11-14T00:47:50.653Z,7.70
2022-11-14T00:50:19.011Z,7.70
2022-11-14T00:52:47.069Z,7.80
2022-11-14T00:55:15.150Z,7.80
2022-11-14T00:57:43.484Z,7.90
2022-11-14T01:00:14.382Z,7.90
2022-11-14T01:02:44.299Z,7.90
2022-11-14T01:05:13.427Z,7.90
2022-11-14T01:07:41.882Z,7.90
2022-11-14T01:10:11.822Z,7.90
2022-11-14T01:12:40.093Z,8.00
2022-11-14T01:15:09.243Z,8.00
2022-11-14T01:17:37.819Z,8.00
2022-11-14T01:20:08.462Z,8.00
2022-11-14T01:22:39.476Z,8.00
2022-11-14T01:25:08.125Z,8.00
2022-11-14T01:27:36.238Z,8.00
2022-11-14T01:30:04.688Z,8.00
2022-11-14T01:32:32.864Z,8.00
2022-11-14T01:35:00.933Z,8.00
2022-11-14T01:37:30.395Z,8.00
2022-11-14T01:39:58.749Z,8.00
2022-11-14T01:42:27.670Z,8.10
2022-11-14T01:44:55.905Z,8.00
2022-11-14T01:47:27.716Z,8.10
2022-11-14T01:49:59.778Z,8.10
2022-11-14T01:52:32.928Z,8.10
2022-11-14T01:55:04.116Z,8.10
2022-11-14T01:57:35.493Z,8.10
2022-11-14T02:00:07.952Z,8.10
2022-11-14T02:02:35.970Z,8.10
2022-11-14T02:05:08.583Z,8.10
2022-11-14T02:07:40.470Z,8.00
2022-11-14T02:10:17.727Z,8.00
2022-11-14T02:12:47.073Z,8.00
2022-11-14T02:15:16.157Z,8.00
2022-11-14T02:17:45.981Z,8.00
2022-11-14T02:20:23.755Z,8.00
2022-11-14T02:22:53.442Z,8.00
2022-11-14T02:25:22.125Z,8.00
2022-11-14T02:27:52.183Z,8.10
2022-11-14T02:30:23.218Z,8.10
2022-11-14T02:33:10.175Z,8.10
2022-11-14T02:35:40.922Z,8.10
2022-11-14T02:38:09.344Z,8.10
2022-11-14T02:40:37.522Z,8.10
2022-11-14T02:43:05.863Z,8.10
2022-11-14T02:45:33.907Z,8.20
2022-11-14T02:48:01.882Z,8.10
2022-11-14T02:50:29.990Z,8.10
2022-11-14T02:52:59.565Z,8.10
2022-11-14T02:55:27.878Z,8.10
2022-11-14T02:57:56.085Z,8.10
2022-11-14T03:00:24.451Z,8.10
2022-11-14T03:02:54.218Z,8.20
2022-11-14T03:05:22.531Z,8.10
2022-11-14T03:07:54.634Z,8.20
2022-11-14T03:10:25.027Z,8.10
2022-11-14T03:12:55.300Z,8.10
2022-11-14T03:15:23.558Z,8.10
2022-11-14T03:17:54.025Z,8.00
2022-11-14T03:20:22.064Z,8.00
2022-11-14T03:22:50.283Z,8.00
2022-11-14T03:25:18.626Z,8.00
2022-11-14T03:27:48.139Z,8.00
2022-11-14T03:30:16.093Z,7.90
2022-11-14T03:32:44.155Z,7.90
2022-11-14T03:35:12.465Z,7.80
2022-11-14T03:37:40.696Z,7.90
2022-11-14T03:40:10.215Z,7.80
2022-11-14T03:42:38.101Z,7.80
2022-11-14T03:45:08.494Z,7.80
2022-11-14T03:47:36.906Z,7.80
2022-11-14T03:50:05.703Z,7.80
2022-11-14T03:52:33.861Z,7.70
2022-11-14T03:55:01.899Z,7.70
2022-11-14T03:57:30.748Z,7.70
2022-11-14T04:00:01.123Z,7.70
2022-11-14T04:02:31.512Z,7.60
2022-11-14T04:04:59.945Z,7.60
2022-11-14T04:07:31.179Z,7.60
2022-11-14T04:10:00.673Z,7.50
2022-11-14T04:12:29.194Z,7.50
2022-11-14T04:14:57.816Z,7.40
2022-11-14T04:17:26.555Z,7.30
2022-11-14T04:19:56.805Z,7.30
2022-11-14T04:22:25.620Z,7.20
2022-11-14T04:24:54.324Z,7.20
2022-11-14T04:27:23.843Z,7.10
2022-11-14T04:29:52.142Z,7.20
2022-11-14T04:32:20.369Z,7.10
2022-11-14T04:34:48.498Z,7.10
2022-11-14T04:37:18.017Z,7.10
2022-11-14T04:39:46.097Z,7.10
2022-11-14T04:42:14.179Z,7.00
2022-11-14T04:44:42.293Z,7.00
2022-11-14T04:47:10.485Z,7.10
2022-11-14T04:49:38.547Z,7.00
2022-11-14T04:52:06.701Z,7.00
2022-11-14T04:54:36.204Z,7.00
2022-11-14T04:57:04.267Z,6.90
2022-11-14T04:59:32.263Z,6.90
2022-11-14T05:02:00.253Z,6.80
2022-11-14T05:04:28.349Z,6.80
2022-11-14T05:06:56.645Z,6.80
2022-11-14T05:09:24.866Z,6.80
2022-11-14T05:11:54.625Z,6.80
2022-11-14T05:14:22.849Z,6.80
2022-11-14T05:16:51.090Z,6.80
2022-11-14T05:19:19.220Z,6.70
2022-11-14T05:21:47.262Z,6.70
2022-11-14T05:24:15.335Z,6.80
2022-11-14T05:26:43.352Z,6.80
2022-11-14T05:29:12.748Z,6.80
2022-11-14T05:31:40.862Z,6.80
2022-11-14T05:34:09.004Z,6.80
2022-11-14T05:36:37.095Z,6.80
2022-11-14T05:39:05.216Z,6.90
2022-11-14T05:41:33.215Z,6.90
2022-11-14T05:44:01.240Z,6.90
2022-11-14T05:46:30.960Z,6.90
2022-11-14T05:48:59.028Z,6.90
2022-11-14T05:51:27.080Z,6.90
2022-11-14T05:53:55.511Z,7.00
2022-11-14T05:56:23.622Z,7.00
2022-11-14T05:58:52.864Z,7.00
2022-11-14T06:01:21.321Z,7.00
2022-11-14T06:03:51.267Z,7.00
2022-11-14T06:06:21.002Z,7.00
2022-11-14T06:08:49.601Z,6.90
2022-11-14T06:11:21.227Z,6.90
2022-11-14T06:13:52.848Z,6.90
2022-11-14T06:16:21.695Z,6.90
2022-11-14T06:19:12.672Z,6.90
2022-11-14T06:21:43.232Z,7.00
2022-11-14T06:24:11.260Z,7.10
2022-11-14T06:26:41.789Z,7.00
2022-11-14T06:29:16.063Z,7.00
2022-11-14T06:31:44.331Z,7.10
2022-11-14T06:34:23.770Z,7.10
2022-11-14T06:37:09.456Z,7.10
2022-11-14T06:39:56.128Z,7.10
2022-11-14T06:42:52.513Z,7.10
2022-11-14T06:45:20.688Z,7.10
2022-11-14T06:51:39.519Z,7.20
2022-11-14T06:54:07.592Z,7.10
2022-11-14T06:56:35.660Z,7.10
2022-11-14T06:59:03.694Z,7.10
2022-11-14T07:01:31.603Z,7.10
2022-11-14T07:04:00.725Z,7.10
2022-11-14T07:06:31.806Z,7.20
2022-11-14T07:09:00.151Z,7.20
2022-11-14T07:11:47.859Z,7.10
2022-11-14T07:14:19.346Z,7.10
2022-11-14T07:17:00.742Z,7.10
2022-11-14T07:19:47.600Z,7.10
2022-11-14T07:22:21.692Z,7.10
2022-11-14T07:25:00.687Z,7.00
2022-11-14T07:27:33.225Z,7.00
2022-11-14T07:30:01.490Z,7.00
2022-11-14T07:32:29.693Z,7.00
2022-11-14T07:35:05.548Z,7.00
2022-11-14T07:37:51.001Z,7.10
2022-11-14T07:40:20.298Z,7.20
2022-11-14T07:42:52.564Z,7.30
2022-11-14T07:45:28.123Z,7.30
2022-11-14T07:48:05.754Z,7.20
2022-11-14T07:50:40.062Z,7.20
2022-11-14T07:53:31.881Z,7.30
2022-11-14T07:56:08.983Z,7.40
2022-11-14T07:58:52.103Z,7.30
2022-11-14T08:01:38.667Z,7.40
2022-11-14T08:04:14.787Z,7.20
2022-11-14T08:06:49.927Z,7.20
2022-11-14T08:15:45.507Z,7.60
2022-11-14T08:18:21.614Z,7.80
2022-11-14T08:21:05.505Z,7.90
2022-11-14T08:26:43.272Z,8.00
2022-11-14T08:29:26.640Z,8.10
2022-11-14T08:32:03.686Z,8.10
2022-11-14T08:34:49.767Z,8.20
2022-11-14T08:37:25.062Z,8.30
2022-11-14T08:39:53.490Z,8.40
2022-11-14T08:42:43.329Z,8.50
2022-11-14T08:45:13.094Z,8.60
2022-11-14T08:48:14.361Z,8.60
2022-11-14T08:50:50.424Z,8.50
2022-11-14T08:53:21.571Z,8.50
2022-11-14T08:55:56.690Z,8.50
2022-11-14T08:58:43.116Z,8.50
2022-11-14T09:01:12.278Z,8.60
2022-11-14T09:03:40.817Z,8.70
2022-11-14T09:06:10.667Z,8.80
2022-11-14T09:08:40.800Z,8.90
2022-11-14T09:11:10.245Z,9.00
2022-11-14T09:13:39.077Z,9.10
2022-11-14T09:16:09.850Z,9.20
2022-11-14T09:18:38.528Z,9.20
2022-11-14T09:21:09.075Z,9.20
2022-11-14T09:23:37.984Z,9.20
2022-11-14T09:26:06.914Z,9.20
2022-11-14T09:28:35.861Z,9.20
2022-11-14T09:31:05.159Z,9.20
2022-11-14T09:33:35.542Z,9.20
2022-11-14T09:36:06.230Z,9.10
2022-11-14T09:38:38.469Z,9.10
2022-11-14T09:41:23.847Z,9.10
2022-11-14T09:44:45.128Z,9.20
2022-11-14T09:47:23.012Z,9.10
2022-11-14T09:49:57.490Z,9.20
2022-11-14T09:52:37.158Z,9.20
2022-11-14T09:55:15.900Z,9.30
2022-11-14T09:57:45.448Z,9.30
2022-11-14T10:00:18.625Z,9.20
2022-11-14T10:03:07.310Z,9.30
2022-11-14T10:05:51.653Z,9.30
2022-11-14T10:08:38.742Z,9.30
2022-11-14T10:11:11.518Z,9.30
2022-11-14T10:14:05.528Z,9.50
2022-11-14T10:16:41.329Z,9.70
2022-11-14T10:19:20.689Z,9.80
2022-11-14T10:22:03.710Z,9.80
2022-11-14T10:24:51.410Z,10.00
2022-11-14T10:27:24.734Z,10.10
2022-11-14T10:30:06.971Z,10.30
2022-11-14T10:32:46.262Z,10.60
2022-11-14T10:35:19.336Z,10.80
2022-11-14T10:37:59.443Z,11.10
2022-11-14T10:40:34.723Z,11.30
2022-11-14T10:43:07.828Z,11.20
2022-11-14T10:45:41.708Z,11.50
2022-11-14T10:48:16.270Z,12.50
2022-11-14T10:50:51.246Z,13.10
2022-11-14T10:53:28.621Z,13.10
2022-11-14T10:56:04.592Z,12.80
2022-11-14T10:58:47.669Z,12.70
2022-11-14T11:01:39.708Z,13.40
2022-11-14T11:04:26.459Z,14.80
2022-11-14T11:07:07.153Z,16.00
2022-11-14T11:09:55.814Z,17.50
2022-11-14T11:12:26.537Z,18.50
2022-11-14T11:15:15.622Z,17.20
2022-11-14T11:17:56.274Z,15.50
2022-11-14T11:20:32.912Z,14.50
2022-11-14T11:23:05.547Z,13.70
2022-11-14T11:25:35.839Z,12.90
2022-11-14T11:28:12.173Z,12.30
2022-11-14T11:30:41.255Z,12.00
2022-11-14T11:33:24.302Z,11.80
2022-11-14T11:35:57.355Z,11.60
2022-11-14T11:38:28.433Z,11.50
2022-11-14T11:41:04.462Z,11.40
2022-11-14T11:43:40.833Z,11.20
2022-11-14T11:46:17.864Z,11.20
2022-11-14T11:48:49.031Z,11.00
2022-11-14T11:51:21.371Z,11.00
2022-11-14T11:53:57.931Z,10.90
2022-11-14T11:56:32.535Z,10.90
2022-11-14T11:59:10.660Z,10.70
2022-11-14T12:01:38.903Z,10.60
2022-11-14T12:04:07.262Z,10.50
2022-11-14T12:06:43.367Z,10.50
2022-11-14T12:09:19.312Z,10.60
2022-11-14T12:11:53.674Z,10.50
2022-11-14T12:14:50.111Z,10.40
2022-11-14T12:18:09.122Z,10.30
2022-11-14T12:20:57.701Z,10.30
2022-11-14T12:23:42.946Z,10.30
2022-11-14T12:26:25.752Z,10.30
2022-11-14T12:29:19.816Z,10.40
2022-11-14T12:31:55.068Z,10.30
2022-11-14T12:34:26.747Z,10.40
2022-11-14T12:37:05.822Z,10.30
2022-11-14T12:39:42.480Z,10.30
2022-11-14T12:42:14.629Z,10.30
2022-11-14T12:45:00.153Z,10.10
2022-11-14T12:47:31.674Z,10.20
2022-11-14T12:50:09.021Z,10.20
2022-11-14T12:56:13.028Z,10.40
2022-11-14T12:59:04.379Z,10.40
2022-11-14T13:01:52.419Z,10.30
2022-11-14T13:04:33.264Z,10.20
2022-11-14T13:07:15.331Z,10.20
2022-11-14T13:10:05.813Z,10.20
2022-11-14T13:13:03.880Z,10.20
2022-11-14T13:15:53.219Z,10.20
2022-11-14T13:18:51.440Z,10.10
2022-11-14T13:21:45.111Z,10.20
2022-11-14T13:24:17.418Z,10.30
2022-11-14T13:26:58.104Z,10.40
2022-11-14T13:30:03.048Z,10.30
2022-11-14T13:33:07.831Z,10.30
2022-11-14T13:35:51.207Z,10.40
2022-11-14T13:38:58.569Z,10.40
2022-11-14T13:42:30.762Z,10.40
2022-11-14T13:45:32.761Z,10.50
2022-11-14T13:49:00.923Z,10.70
2022-11-14T13:51:47.463Z,10.80
2022-11-14T13:54:18.727Z,10.90
2022-11-14T13:56:58.622Z,10.90
2022-11-14T13:59:50.440Z,11.00
2022-11-14T14:02:56.227Z,11.10
2022-11-14T14:05:33.189Z,11.10
2022-11-14T14:08:22.320Z,11.00
2022-11-14T14:11:09.555Z,11.00
2022-11-14T14:13:55.166Z,11.10
2022-11-14T14:16:35.604Z,11.00
2022-11-14T14:19:13.985Z,11.00
2022-11-14T14:21:49.250Z,11.00
2022-11-14T14:24:32.945Z,10.90
2022-11-14T14:27:12.212Z,10.90
2022-11-14T14:29:47.049Z,10.90
2022-11-14T14:32:18.197Z,10.90
2022-11-14T14:34:46.850Z,10.80
2022-11-14T14:37:20.321Z,10.80
2022-11-14T14:40:02.939Z,10.80
2022-11-14T14:42:39.237Z,10.80
2022-11-14T14:45:16.029Z,10.80
2022-11-14T14:47:46.247Z,10.80
2022-11-14T14:50:20.521Z,10.80
2022-11-14T14:52:57.521Z,10.70
2022-11-14T14:55:34.740Z,10.70
2022-11-14T14:58:31.833Z,10.60
2022-11-14T15:01:02.328Z,10.60
2022-11-14T15:03:36.976Z,10.60
2022-11-14T15:06:09.363Z,10.60
2022-11-14T15:08:39.826Z,10.60
2022-11-14T15:11:09.864Z,10.50
2022-11-14T15:13:39.211Z,10.50
2022-11-14T15:16:09.429Z,10.50
2022-11-14T15:18:38.315Z,10.50
2022-11-14T15:21:17.396Z,10.40
2022-11-14T15:24:03.738Z,10.40
2022-11-14T15:26:38.813Z,10.40
2022-11-14T15:29:09.342Z,10.30
2022-11-14T15:31:38.086Z,10.30
2022-11-14T15:34:08.410Z,10.30
2022-11-14T15:36:36.860Z,10.30
2022-11-14T15:39:15.549Z,10.30
2022-11-14T15:41:45.185Z,10.20
2022-11-14T15:44:32.249Z,10.20
2022-11-14T15:47:03.001Z,10.30
2022-11-14T15:49:31.080Z,10.30
2022-11-14T15:52:00.807Z,10.30
2022-11-14T15:54:31.042Z,10.30
2022-11-14T15:57:02.234Z,10.30
2022-11-14T15:59:31.586Z,10.30
2022-11-14T16:02:05.083Z,10.30
2022-11-14T16:04:36.140Z,10.30
2022-11-14T16:07:04.803Z,10.30
2022-11-14T16:09:33.177Z,10.20
2022-11-14T16:12:02.643Z,10.20
2022-11-14T16:14:30.846Z,10.20
2022-11-14T16:17:00.262Z,10.20
2022-11-14T16:19:28.385Z,10.20
2022-11-14T16:21:59.161Z,10.20
2022-11-14T16:24:32.551Z,10.30
2022-11-14T16:27:03.385Z,10.30
2022-11-14T16:29:31.545Z,10.30
2022-11-14T16:31:59.706Z,10.40
2022-11-14T16:34:28.172Z,10.40
2022-11-14T16:37:01.339Z,10.40
2022-11-14T16:39:29.888Z,10.40
2022-11-14T16:42:03.388Z,10.40
2022-11-14T16:44:37.283Z,10.40
2022-11-14T16:47:09.083Z,10.30
2022-11-14T16:49:37.117Z,10.20
2022-11-14T16:52:08.730Z,10.20
2022-11-14T16:54:39.356Z,10.10
2022-11-14T16:57:08.706Z,10.00
2022-11-14T16:59:36.659Z,9.90
2022-11-14T17:02:05.059Z,9.80
2022-11-14T17:04:33.099Z,9.80
2022-11-14T17:07:01.194Z,9.80
2022-11-14T17:09:29.373Z,9.70
2022-11-14T17:11:57.371Z,9.70
2022-11-14T17:14:28.527Z,9.70
2022-11-14T17:16:56.554Z,9.70
2022-11-14T17:19:24.607Z,9.70
2022-11-14T17:21:53.087Z,9.70
2022-11-14T17:24:21.181Z,9.70
2022-11-14T17:26:51.782Z,9.60
2022-11-14T17:29:19.703Z,9.60
2022-11-14T17:31:49.321Z,9.60
2022-11-14T17:34:17.268Z,9.60
2022-11-14T17:36:45.270Z,9.60
2022-11-14T17:39:13.429Z,9.60
2022-11-14T17:41:41.405Z,9.50
2022-11-14T17:44:09.935Z,9.50
2022-11-14T17:46:37.961Z,9.50
2022-11-14T17:49:07.476Z,9.50
2022-11-14T17:51:35.415Z,9.50
2022-11-14T17:54:03.824Z,9.50
2022-11-14T17:56:34.865Z,9.50
2022-11-14T17:59:02.957Z,9.50
2022-11-14T18:01:31.753Z,9.60
2022-11-14T18:04:04.688Z,9.50
2022-11-14T18:06:35.641Z,9.50
2022-11-14T18:09:08.131Z,9.50
2022-11-14T18:11:41.905Z,9.50
2022-11-14T18:14:09.826Z,9.50
2022-11-14T18:17:10.522Z,9.50
2022-11-14T18:19:28.861Z,9.50
2022-11-14T18:21:58.435Z,9.50
2022-11-14T18:24:26.481Z,9.60
2022-11-14T18:26:55.516Z,9.70
2022-11-14T18:29:25.258Z,9.70
2022-11-14T18:31:54.916Z,9.70
2022-11-14T18:34:22.970Z,9.80
2022-11-14T18:36:51.006Z,9.80
2022-11-14T18:39:23.455Z,9.90
2022-11-14T18:41:57.856Z,9.90
2022-11-14T18:44:26.126Z,9.90
2022-11-14T18:46:54.561Z,10.00
2022-11-14T18:49:25.224Z,10.00
2022-11-14T18:51:55.001Z,10.00
2022-11-14T18:54:32.896Z,10.10
2022-11-14T18:57:01.856Z,10.20
2022-11-14T18:59:32.483Z,10.20
2022-11-14T19:02:00.930Z,10.20
2022-11-14T19:04:29.265Z,10.20
2022-11-14T19:06:57.526Z,10.20
2022-11-14T19:09:27.044Z,10.30
2022-11-14T19:12:12.905Z,10.30
2022-11-14T19:14:47.629Z,10.30
2022-11-14T19:17:20.734Z,10.30
2022-11-14T19:19:50.051Z,10.40
2022-11-14T19:22:18.245Z,10.30
2022-11-14T19:24:54.101Z,10.40
2022-11-14T19:27:25.250Z,10.30
2022-11-14T19:29:53.312Z,10.30
2022-11-14T19:32:22.844Z,10.40
2022-11-14T19:34:53.421Z,10.50
2022-11-14T19:37:21.812Z,10.50
2022-11-14T19:39:55.419Z,10.50
2022-11-14T19:42:25.943Z,10.50
2022-11-14T19:44:54.157Z,10.60
2022-11-14T19:47:22.392Z,10.70
2022-11-14T19:49:50.898Z,10.70
2022-11-14T19:52:26.550Z,10.80
2022-11-14T19:54:59.427Z,10.90
2022-11-14T19:57:31.052Z,10.90
2022-11-14T20:00:01.594Z,11.00
2022-11-14T20:02:30.075Z,11.00
2022-11-14T20:05:00.429Z,11.00
2022-11-14T20:07:30.350Z,11.00
2022-11-14T20:10:00.075Z,11.00
2022-11-14T20:12:30.772Z,11.00
2022-11-14T20:15:02.784Z,11.00
2022-11-14T20:17:31.112Z,11.00
2022-11-14T20:19:59.511Z,11.00
2022-11-14T20:22:27.731Z,11.00
2022-11-14T20:24:55.997Z,11.10
2022-11-14T20:27:28.846Z,11.10
2022-11-14T20:29:57.173Z,11.10
2022-11-14T20:32:25.465Z,11.10
2022-11-14T20:34:53.647Z,11.10
2022-11-14T20:37:21.887Z,11.10
2022-11-14T20:39:50.097Z,11.10
2022-11-14T20:42:21.195Z,11.10
2022-11-14T20:44:51.091Z,11.10
2022-11-14T20:47:22.572Z,11.10
2022-11-14T20:49:53.844Z,11.10
2022-11-14T20:52:22.051Z,11.10
2022-11-14T20:54:53.119Z,11.10
2022-11-14T20:57:23.392Z,11.10
2022-11-14T20:59:53.341Z,11.10
2022-11-14T21:02:21.841Z,11.10
2022-11-14T21:04:50.292Z,11.10
2022-11-14T21:07:18.779Z,11.10
2022-11-14T21:09:46.854Z,11.10
2022-11-14T21:12:14.969Z,11.10
2022-11-14T21:14:42.975Z,11.10
2022-11-14T21:17:14.999Z,11.10
2022-11-14T21:19:43.075Z,11.20
2022-11-14T21:22:11.305Z,11.20
2022-11-14T21:24:40.859Z,11.20
2022-11-14T21:27:15.015Z,11.20
2022-11-14T21:29:45.945Z,11.20
2022-11-14T21:32:20.979Z,11.20
2022-11-14T21:34:52.137Z,11.20
2022-11-14T21:37:23.135Z,11.20
2022-11-14T21:39:51.317Z,11.20
2022-11-14T21:42:21.562Z,11.20
2022-11-14T21:44:49.817Z,11.20
2022-11-14T21:47:19.411Z,11.20
2022-11-14T21:49:47.586Z,11.20
2022-11-14T21:52:20.826Z,11.30
2022-11-14T21:54:48.914Z,11.30
2022-11-14T21:57:17.036Z,11.30
2022-11-14T21:59:45.233Z,11.30
2022-11-14T22:02:31.316Z,11.30
2022-11-14T22:05:05.111Z,11.30
2022-11-14T22:07:33.131Z,11.30
2022-11-14T22:10:01.136Z,11.20
2022-11-14T22:12:29.217Z,11.20
2022-11-14T22:14:57.235Z,11.20
2022-11-14T22:17:25.257Z,11.20
2022-11-14T22:19:53.194Z,11.20
2022-11-14T22:22:22.578Z,11.20
2022-11-14T22:24:50.601Z,11.20
2022-11-14T22:27:18.668Z,11.10
2022-11-14T22:29:46.701Z,11.10
2022-11-14T22:32:19.191Z,11.10
2022-11-14T22:34:48.509Z,11.10
2022-11-14T22:37:16.668Z,11.20
2022-11-14T22:39:49.789Z,11.10
2022-11-14T22:42:17.911Z,11.10
2022-11-14T22:44:49.165Z,11.00
2022-11-14T22:47:17.395Z,11.00
2022-11-14T22:49:45.813Z,11.00
2022-11-14T22:52:15.420Z,11.00
2022-11-14T22:54:45.180Z,11.00
2022-11-14T22:57:16.059Z,11.00
2022-11-14T22:59:46.707Z,11.00
2022-11-14T23:02:16.950Z,11.00
2022-11-14T23:04:47.181Z,11.00
2022-11-14T23:07:15.277Z,11.00
2022-11-14T23:09:43.866Z,11.00
2022-11-14T23:12:13.230Z,11.00
2022-11-14T23:14:43.831Z,10.90
2022-11-14T23:17:12.029Z,10.90
2022-11-14T23:19:40.372Z,10.90
2022-11-14T23:22:08.489Z,10.90
2022-11-14T23:24:38.469Z,11.00
2022-11-14T23:27:06.687Z,11.00
2022-11-14T23:29:39.354Z,11.00
2022-11-14T23:32:08.737Z,11.10
2022-11-14T23:34:37.125Z,11.10
2022-11-14T23:37:12.523Z,11.10
2022-11-14T23:39:43.248Z,11.20
2022-11-14T23:42:11.351Z,11.20
2022-11-14T23:44:41.067Z,11.20
2022-11-14T23:47:11.749Z,11.30
2022-11-14T23:49:39.838Z,11.30
2022-11-14T23:52:08.341Z,11.30
2022-11-14T23:54:36.593Z,11.30
2022-11-14T23:57:04.950Z,11.30
2022-11-14T23:59:32.972Z,11.30
